Time;durP1;ratioP1;P1;durP2;ratioP2;P2;SDS_P1;SDS_P2;PMS_P1;PMS_P2;Temp;Humidity;BMP_temperature;BMP_pressure;BME280_temperature;BME280_humidity;BME280_pressure;Samples;Min_cycle;Max_cycle;Signal;HPM_P1;HPM_P2
2021/11/14 00:00:45;;;;;;;23.25;17.17;;;9.00;94.20;;;;;;5073264;28;20166;-38
2021/11/14 00:03:10;;;;;;;23.52;15.95;;;9.00;94.20;;;;;;5073389;28;20024;-37
2021/11/14 00:05:38;;;;;;;24.48;15.23;;;9.00;94.20;;;;;;5072763;28;20381;-37
2021/11/14 00:08:04;;;;;;;22.42;15.48;;;9.10;94.00;;;;;;5073339;28;20032;-37
2021/11/14 00:10:32;;;;;;;23.45;16.23;;;9.10;94.00;;;;;;5071729;28;20039;-37
2021/11/14 00:12:58;;;;;;;21.00;14.38;;;9.10;93.70;;;;;;5071623;28;20049;-37
2021/11/14 00:15:24;;;;;;;21.77;15.23;;;9.20;93.70;;;;;;5072975;28;20024;-37
2021/11/14 00:17:50;;;;;;;24.02;16.40;;;9.10;93.60;;;;;;5073542;28;20028;-37
2021/11/14 00:20:16;;;;;;;23.83;16.23;;;9.00;93.60;;;;;;5071878;28;20033;-37
2021/11/14 00:22:42;;;;;;;22.25;14.88;;;9.10;93.80;;;;;;5073492;28;20074;-37
2021/11/14 00:25:09;;;;;;;23.92;14.98;;;9.00;93.80;;;;;;5073287;28;20021;-37
2021/11/14 00:27:35;;;;;;;22.52;15.27;;;9.00;93.80;;;;;;5072922;28;20479;-37
2021/11/14 00:30:03;;;;;;;24.30;14.95;;;8.90;93.70;;;;;;5073819;28;20053;-37
2021/11/14 00:32:29;;;;;;;22.10;16.20;;;9.00;93.80;;;;;;5073080;28;20020;-37
2021/11/14 00:34:55;;;;;;;28.63;17.35;;;9.00;93.90;;;;;;5072924;28;20091;-37
2021/11/14 00:37:20;;;;;;;20.50;15.55;;;9.00;93.90;;;;;;5072909;28;20094;-37
2021/11/14 00:39:46;;;;;;;24.63;16.67;;;9.00;93.90;;;;;;5072750;28;20028;-37
2021/11/14 00:42:12;;;;;;;26.80;17.02;;;9.00;94.00;;;;;;5072853;28;20534;-37
2021/11/14 00:44:38;;;;;;;20.80;15.02;;;8.90;94.00;;;;;;5072805;28;20055;-37
2021/11/14 00:47:04;;;;;;;33.70;19.00;;;8.90;94.00;;;;;;5072931;28;20108;-37
2021/11/14 00:49:30;;;;;;;26.67;17.10;;;9.00;94.20;;;;;;5072588;28;20029;-37
2021/11/14 00:51:56;;;;;;;24.38;15.95;;;9.10;93.90;;;;;;5075922;28;20046;-37
2021/11/14 00:54:22;;;;;;;28.23;17.63;;;9.10;93.50;;;;;;5075253;28;20021;-37
2021/11/14 00:56:48;;;;;;;25.05;16.45;;;8.90;93.50;;;;;;5077149;28;20432;-37
2021/11/14 00:59:14;;;;;;;26.40;16.27;;;8.90;93.80;;;;;;5076842;28;20071;-37
2021/11/14 01:01:39;;;;;;;25.02;15.75;;;8.90;93.80;;;;;;5076619;28;20076;-37
2021/11/14 01:04:05;;;;;;;26.98;17.63;;;8.90;93.80;;;;;;5076542;28;20052;-38
2021/11/14 01:06:31;;;;;;;22.50;15.57;;;8.90;94.00;;;;;;5076486;28;20186;-37
2021/11/14 01:08:57;;;;;;;21.77;15.50;;;9.00;93.90;;;;;;5076588;28;20475;-37
2021/11/14 01:11:23;;;;;;;26.38;16.77;;;9.00;93.70;;;;;;5076376;28;20492;-38
2021/11/14 01:13:48;;;;;;;24.58;16.30;;;9.00;93.50;;;;;;5076613;28;20031;-37
2021/11/14 01:16:17;;;;;;;25.42;15.68;;;8.90;93.60;;;;;;5076508;28;20025;-37
2021/11/14 01:18:43;;;;;;;23.60;16.85;;;8.90;93.70;;;;;;5076142;28;20028;-37
2021/11/14 01:21:12;;;;;;;23.58;16.25;;;8.90;93.60;;;;;;5076449;28;20482;-37
2021/11/14 01:23:39;;;;;;;28.73;16.88;;;8.80;93.80;;;;;;5076364;28;20032;-37
2021/11/14 01:26:05;;;;;;;22.48;14.70;;;8.90;93.80;;;;;;5076269;28;20436;-38
2021/11/14 01:28:31;;;;;;;23.38;15.18;;;8.90;93.70;;;;;;5076306;28;20024;-38
2021/11/14 01:30:58;;;;;;;20.80;14.20;;;8.90;93.70;;;;;;5075954;28;20484;-38
2021/11/14 01:33:26;;;;;;;31.17;16.80;;;8.90;93.60;;;;;;5074419;28;20396;-38
2021/11/14 01:35:55;;;;;;;21.08;14.30;;;8.90;93.50;;;;;;5075905;28;20029;-37
2021/11/14 01:38:22;;;;;;;25.80;15.55;;;8.90;93.50;;;;;;5075646;28;20062;-37
2021/11/14 01:40:56;;;;;;;23.85;16.10;;;8.90;93.30;;;;;;5075864;28;20056;-38
2021/11/14 01:43:31;;;;;;;26.67;16.45;;;8.90;93.30;;;;;;5075805;28;20033;-38
2021/11/14 01:45:57;;;;;;;34.05;18.00;;;8.90;93.20;;;;;;5076065;28;20035;-38
2021/11/14 01:48:22;;;;;;;30.88;17.65;;;8.80;93.20;;;;;;5075973;28;20025;-38
2021/11/14 01:50:49;;;;;;;25.60;18.27;;;8.80;93.20;;;;;;5075944;28;20556;-38
2021/11/14 01:53:15;;;;;;;24.77;15.05;;;8.90;93.40;;;;;;5075549;28;20029;-38
2021/11/14 01:55:46;;;;;;;23.88;16.55;;;8.90;93.40;;;;;;5075691;28;20074;-38
2021/11/14 01:58:15;;;;;;;24.85;17.20;;;8.90;93.40;;;;;;5075552;28;20025;-37
2021/11/14 02:00:49;;;;;;;28.33;17.07;;;8.80;93.30;;;;;;5075318;28;20069;-39
2021/11/14 02:03:15;;;;;;;28.95;16.70;;;8.80;93.40;;;;;;5075421;28;20465;-40
2021/11/14 02:05:41;;;;;;;23.63;15.73;;;8.80;93.40;;;;;;5074900;28;20020;-38
2021/11/14 02:08:08;;;;;;;24.65;15.23;;;8.90;93.40;;;;;;5075415;28;20130;-37
2021/11/14 02:10:36;;;;;;;23.88;15.30;;;8.80;93.30;;;;;;5074736;28;20048;-38
2021/11/14 02:13:02;;;;;;;25.75;17.67;;;8.80;93.30;;;;;;5075028;28;20020;-38
2021/11/14 02:15:28;;;;;;;20.58;14.77;;;8.80;93.10;;;;;;5075024;28;20044;-38
2021/11/14 02:17:54;;;;;;;22.35;15.65;;;8.80;93.10;;;;;;5074954;28;20021;-37
2021/11/14 02:20:22;;;;;;;24.33;16.08;;;8.80;93.10;;;;;;5075253;28;20017;-37
2021/11/14 02:22:48;;;;;;;20.80;15.18;;;8.80;93.10;;;;;;5074969;28;20067;-37
2021/11/14 02:25:16;;;;;;;22.83;14.98;;;8.80;93.20;;;;;;5074848;28;20493;-37
2021/11/14 02:27:43;;;;;;;24.33;16.27;;;8.80;93.20;;;;;;5074742;28;20036;-37
2021/11/14 02:30:12;;;;;;;21.92;13.18;;;8.80;93.20;;;;;;5074982;28;20039;-37
2021/11/14 02:32:38;;;;;;;21.10;14.45;;;8.70;93.10;;;;;;5074959;28;20360;-37
2021/11/14 02:35:05;;;;;;;24.27;14.25;;;8.70;93.00;;;;;;5074845;28;20027;-36
2021/11/14 02:37:31;;;;;;;18.40;13.27;;;8.70;93.00;;;;;;5074736;28;20081;-37
2021/11/14 02:39:56;;;;;;;22.20;13.13;;;8.60;93.20;;;;;;5075150;28;20111;-36
2021/11/14 02:42:22;;;;;;;19.42;12.68;;;8.50;93.20;;;;;;5074929;28;20033;-37
2021/11/14 02:44:48;;;;;;;23.98;13.43;;;8.50;93.00;;;;;;5075388;28;20067;-36
2021/11/14 02:47:14;;;;;;;22.88;13.23;;;8.40;93.00;;;;;;5074896;28;20049;-37
2021/11/14 02:49:40;;;;;;;21.48;13.80;;;8.30;93.20;;;;;;5074865;28;20111;-37
2021/11/14 02:52:07;;;;;;;20.27;14.13;;;8.30;93.40;;;;;;5075438;28;20533;-36
2021/11/14 02:54:33;;;;;;;23.27;14.57;;;8.30;93.50;;;;;;5075012;28;20033;-36
2021/11/14 02:56:58;;;;;;;20.98;13.82;;;8.10;93.50;;;;;;5074908;28;20046;-37
2021/11/14 02:59:25;;;;;;;18.70;12.70;;;8.10;93.70;;;;;;5074449;28;20025;-37
2021/11/14 03:01:53;;;;;;;18.77;12.75;;;8.00;93.80;;;;;;5074597;28;20070;-37
2021/11/14 03:04:25;;;;;;;19.70;12.57;;;8.00;93.90;;;;;;5074495;28;20020;-36
2021/11/14 03:06:52;;;;;;;20.77;13.32;;;7.90;93.80;;;;;;5074129;28;20453;-36
2021/11/14 03:09:19;;;;;;;22.60;14.27;;;7.90;93.80;;;;;;5074338;28;20059;-37
2021/11/14 03:11:45;;;;;;;19.85;13.25;;;7.90;93.90;;;;;;5074311;28;20060;-36
2021/11/14 03:14:11;;;;;;;23.65;14.40;;;7.90;93.80;;;;;;5073435;28;20029;-38
2021/11/14 03:16:38;;;;;;;18.20;12.65;;;8.00;93.70;;;;;;5073966;28;20036;-37
2021/11/14 03:19:04;;;;;;;17.80;12.48;;;7.90;93.80;;;;;;5073995;28;20033;-36
2021/11/14 03:21:30;;;;;;;19.40;13.40;;;8.00;93.80;;;;;;5073846;28;20074;-37
2021/11/14 03:23:56;;;;;;;32.78;16.50;;;8.00;93.70;;;;;;5073864;28;20033;-36
2021/11/14 03:26:23;;;;;;;17.15;12.80;;;8.10;93.50;;;;;;5073760;28;20035;-37
2021/11/14 03:28:49;;;;;;;15.82;11.65;;;8.10;93.40;;;;;;5073701;28;20111;-37
2021/11/14 03:31:14;;;;;;;18.83;12.93;;;8.00;93.30;;;;;;5073709;28;20021;-37
2021/11/14 03:33:42;;;;;;;19.55;12.85;;;8.10;93.30;;;;;;5073586;28;20438;-37
2021/11/14 03:36:13;;;;;;;21.10;12.82;;;8.00;93.20;;;;;;5073792;28;20140;-37
2021/11/14 03:38:49;;;;;;;23.75;13.52;;;8.00;93.20;;;;;;5073431;28;20407;-37
2021/11/14 03:41:18;;;;;;;18.42;12.85;;;8.00;93.20;;;;;;5073535;28;20024;-37
2021/11/14 03:43:45;;;;;;;21.60;12.65;;;8.00;93.20;;;;;;5073426;28;20032;-36
2021/11/14 03:46:11;;;;;;;20.60;13.43;;;8.00;93.20;;;;;;5073427;28;20025;-37
2021/11/14 03:48:41;;;;;;;23.13;13.38;;;7.90;93.10;;;;;;5073456;28;20111;-36
2021/11/14 03:51:07;;;;;;;23.67;13.52;;;8.00;93.10;;;;;;5073435;28;20028;-36
2021/11/14 03:53:33;;;;;;;20.05;13.10;;;7.90;93.00;;;;;;5073606;28;20452;-36
2021/11/14 03:55:59;;;;;;;21.90;13.48;;;7.80;93.00;;;;;;5073732;28;20021;-37
2021/11/14 03:58:25;;;;;;;20.42;11.93;;;7.70;93.00;;;;;;5073423;28;20070;-37
2021/11/14 04:00:58;;;;;;;21.20;11.02;;;7.70;93.20;;;;;;5073210;28;20020;-37
2021/11/14 04:03:25;;;;;;;21.80;13.48;;;7.70;93.10;;;;;;5073654;28;20016;-37
2021/11/14 04:05:52;;;;;;;18.48;11.73;;;7.60;93.10;;;;;;5071810;28;20566;-37
2021/11/14 04:08:21;;;;;;;22.40;13.40;;;7.80;93.00;;;;;;5073175;28;20020;-42
2021/11/14 04:10:48;;;;;;;18.85;12.45;;;7.80;93.00;;;;;;5073123;28;20025;-36
2021/11/14 04:13:15;;;;;;;24.98;14.05;;;7.80;92.90;;;;;;5073056;28;20449;-37
2021/11/14 04:15:42;;;;;;;26.23;14.77;;;7.80;92.90;;;;;;5072955;28;20024;-36
2021/11/14 04:18:08;;;;;;;20.60;13.48;;;7.80;92.80;;;;;;5072826;28;20017;-36
2021/11/14 04:20:37;;;;;;;22.40;12.80;;;7.70;92.80;;;;;;5073023;28;20025;-36
2021/11/14 04:23:04;;;;;;;27.33;14.80;;;7.60;93.00;;;;;;5072885;28;20075;-37
2021/11/14 04:25:30;;;;;;;31.10;17.02;;;7.40;93.40;;;;;;5071974;28;20422;-37
2021/11/14 04:27:57;;;;;;;29.50;16.52;;;7.30;93.70;;;;;;5072954;28;20078;-36
2021/11/14 04:30:23;;;;;;;29.63;17.38;;;7.40;93.70;;;;;;5073107;28;20425;-37
2021/11/14 04:32:49;;;;;;;29.88;16.88;;;7.30;93.70;;;;;;5072813;28;20025;-36
2021/11/14 04:35:15;;;;;;;28.08;17.88;;;7.40;93.60;;;;;;5072797;28;20120;-36
2021/11/14 04:37:41;;;;;;;35.90;18.02;;;7.40;93.70;;;;;;5073054;28;20107;-36
2021/11/14 04:40:08;;;;;;;40.10;20.60;;;7.30;93.80;;;;;;5072586;28;20399;-36
2021/11/14 04:42:36;;;;;;;38.45;18.10;;;7.30;93.90;;;;;;5072612;28;20025;-36
2021/11/14 04:45:04;;;;;;;33.03;18.25;;;7.30;93.90;;;;;;5072924;28;20468;-36
2021/11/14 04:47:29;;;;;;;34.55;18.17;;;7.30;94.10;;;;;;5072686;28;20017;-36
2021/11/14 04:49:55;;;;;;;36.05;19.23;;;7.20;94.10;;;;;;5072609;28;20029;-36
2021/11/14 04:52:24;;;;;;;44.35;21.60;;;7.30;94.40;;;;;;5072545;28;20039;-37
2021/11/14 04:54:50;;;;;;;38.13;21.52;;;7.30;94.30;;;;;;5072604;28;20059;-37
2021/11/14 04:57:15;;;;;;;45.05;21.50;;;7.20;94.30;;;;;;5072776;28;20029;-37
2021/11/14 04:59:41;;;;;;;44.58;21.42;;;7.20;94.50;;;;;;5072898;28;20033;-37
2021/11/14 05:02:06;;;;;;;43.53;20.35;;;7.20;94.40;;;;;;5072838;28;20040;-37
2021/11/14 05:04:32;;;;;;;50.53;24.73;;;7.20;94.60;;;;;;5072497;28;20031;-37
2021/11/14 05:06:58;;;;;;;44.30;23.02;;;7.20;94.60;;;;;;5072317;28;20465;-36
2021/11/14 05:09:24;;;;;;;46.92;24.23;;;7.30;94.60;;;;;;5072438;28;20031;-37
2021/11/14 05:11:49;;;;;;;40.88;20.77;;;7.30;94.40;;;;;;5072752;28;20090;-37
2021/11/14 05:14:15;;;;;;;39.65;22.10;;;7.20;94.50;;;;;;5072835;28;20059;-37
2021/11/14 05:16:41;;;;;;;38.33;22.17;;;7.10;94.30;;;;;;5072836;28;20029;-37
2021/11/14 05:19:06;;;;;;;44.97;25.85;;;7.00;94.50;;;;;;5072327;28;20365;-37
2021/11/14 05:21:32;;;;;;;44.83;25.85;;;7.00;94.50;;;;;;5072594;28;20365;-37
2021/11/14 05:23:57;;;;;;;52.97;27.88;;;7.00;94.60;;;;;;5072530;28;20033;-37
2021/11/14 05:26:23;;;;;;;44.58;25.80;;;7.00;94.80;;;;;;5072496;28;20372;-37
2021/11/14 05:28:49;;;;;;;48.35;25.63;;;7.10;94.80;;;;;;5072294;28;20029;-37
2021/11/14 05:31:15;;;;;;;40.40;24.02;;;7.20;94.60;;;;;;5072222;28;20031;-37
2021/11/14 05:33:40;;;;;;;36.13;22.67;;;7.10;94.50;;;;;;5072273;28;20078;-37
2021/11/14 05:36:06;;;;;;;37.78;21.13;;;7.20;94.40;;;;;;5072980;28;20407;-37
2021/11/14 05:38:32;;;;;;;29.17;18.80;;;7.30;94.10;;;;;;5075616;28;20028;-37
2021/11/14 05:40:57;;;;;;;27.42;16.50;;;7.20;93.80;;;;;;5075943;28;20090;-37
2021/11/14 05:43:23;;;;;;;25.17;16.83;;;7.10;93.10;;;;;;5075796;28;20028;-37
2021/11/14 05:45:49;;;;;;;29.67;17.55;;;7.10;92.90;;;;;;5075791;28;20384;-37
2021/11/14 05:48:15;;;;;;;26.52;16.90;;;7.20;92.80;;;;;;5076006;28;20024;-37
2021/11/14 05:50:41;;;;;;;31.70;18.02;;;7.20;92.60;;;;;;5075731;28;20099;-37
2021/11/14 05:53:06;;;;;;;26.52;16.40;;;7.20;92.60;;;;;;5075669;28;20056;-37
2021/11/14 05:55:33;;;;;;;27.08;16.58;;;7.10;92.40;;;;;;5075892;28;20021;-37
2021/11/14 05:58:08;;;;;;;27.70;16.15;;;7.10;92.40;;;;;;5074222;28;20024;-36
2021/11/14 06:05:40;;;;;;;31.02;17.75;;;7.10;92.60;;;;;;5075562;28;20025;-37
2021/11/14 06:08:07;;;;;;;32.60;18.77;;;7.10;92.60;;;;;;5076152;28;20050;-37
2021/11/14 06:10:34;;;;;;;25.90;13.43;;;7.10;92.60;;;;;;5075385;28;20020;-36
2021/11/14 06:13:00;;;;;;;28.30;17.48;;;7.10;92.40;;;;;;5075325;28;20035;-37
2021/11/14 06:15:26;;;;;;;28.58;15.60;;;6.90;92.30;;;;;;5075310;28;20050;-37
2021/11/14 06:17:52;;;;;;;31.45;15.57;;;6.90;92.70;;;;;;5075385;28;20447;-37
2021/11/14 06:20:19;;;;;;;33.58;18.50;;;6.80;92.70;;;;;;5075101;28;20104;-36
2021/11/14 06:22:45;;;;;;;27.75;16.52;;;6.80;92.60;;;;;;5073875;28;20025;-37
2021/11/14 06:25:11;;;;;;;36.88;19.27;;;6.70;92.80;;;;;;5075327;28;20025;-37
2021/11/14 06:27:38;;;;;;;33.47;19.77;;;6.70;92.90;;;;;;5075227;28;20425;-37
2021/11/14 06:30:08;;;;;;;31.80;18.65;;;6.70;93.20;;;;;;5073991;28;20062;-37
2021/11/14 06:32:33;;;;;;;34.87;19.87;;;6.60;93.20;;;;;;5074863;28;20067;-37
2021/11/14 06:35:02;;;;;;;32.90;19.45;;;6.70;93.20;;;;;;5075212;28;20056;-37
2021/11/14 06:37:28;;;;;;;31.25;18.30;;;6.80;93.40;;;;;;5074854;28;20056;-37
2021/11/14 06:39:54;;;;;;;32.03;18.52;;;6.80;93.10;;;;;;5075212;28;20029;-37
2021/11/14 06:42:20;;;;;;;32.03;18.08;;;6.80;93.30;;;;;;5074821;28;20042;-37
2021/11/14 06:44:45;;;;;;;31.90;16.83;;;6.80;93.20;;;;;;5074691;28;20032;-37
2021/11/14 06:47:15;;;;;;;30.38;17.90;;;6.80;92.80;;;;;;5074658;28;20021;-37
2021/11/14 06:49:41;;;;;;;34.92;18.00;;;6.70;93.20;;;;;;5073647;28;20083;-37
2021/11/14 06:52:08;;;;;;;31.45;18.80;;;6.70;93.20;;;;;;5074792;28;20039;-37
2021/11/14 06:54:35;;;;;;;33.63;18.95;;;6.70;93.10;;;;;;5075400;28;20099;-37
2021/11/14 06:57:01;;;;;;;32.67;19.05;;;6.60;93.20;;;;;;5074399;28;20043;-36
2021/11/14 06:59:26;;;;;;;32.05;19.55;;;6.60;93.50;;;;;;5074551;28;20384;-37
2021/11/14 07:01:52;;;;;;;37.95;20.33;;;6.60;93.50;;;;;;5074258;28;20025;-36
2021/11/14 07:04:17;;;;;;;37.10;21.23;;;6.70;93.40;;;;;;5074333;28;20096;-37
2021/11/14 07:06:45;;;;;;;36.88;19.52;;;6.60;93.30;;;;;;5074100;28;20036;-37
2021/11/14 07:09:11;;;;;;;42.97;21.70;;;6.60;93.30;;;;;;5074380;28;20082;-37
2021/11/14 07:11:38;;;;;;;38.22;21.15;;;6.70;93.50;;;;;;5074294;28;20473;-38
2021/11/14 07:14:04;;;;;;;37.80;20.15;;;6.70;93.40;;;;;;5074282;28;20096;-37
2021/11/14 07:16:30;;;;;;;39.65;23.60;;;6.70;93.20;;;;;;5073929;28;20426;-37
2021/11/14 07:18:57;;;;;;;43.15;24.25;;;6.80;93.30;;;;;;5073822;28;20070;-37
2021/11/14 07:21:23;;;;;;;38.60;21.40;;;6.80;93.20;;;;;;5074042;28;20025;-37
2021/11/14 07:23:49;;;;;;;41.88;20.70;;;6.80;93.00;;;;;;5074222;28;20461;-37
2021/11/14 07:26:15;;;;;;;40.72;20.92;;;6.90;92.80;;;;;;5074513;28;20028;-37
2021/11/14 07:28:41;;;;;;;43.75;22.17;;;6.80;92.70;;;;;;5074327;28;20055;-38
2021/11/14 07:31:07;;;;;;;43.13;22.77;;;6.90;92.80;;;;;;5073925;28;20024;-38
2021/11/14 07:33:33;;;;;;;41.50;22.38;;;6.90;92.50;;;;;;5072869;28;20020;-38
2021/11/14 07:35:59;;;;;;;48.13;23.55;;;6.90;92.40;;;;;;5072243;28;20024;-38
2021/11/14 07:38:25;;;;;;;41.33;18.88;;;6.90;92.50;;;;;;5073425;28;20032;-38
2021/11/14 07:40:50;;;;;;;49.20;23.15;;;6.90;92.40;;;;;;5073644;28;20423;-38
2021/11/14 07:43:16;;;;;;;55.50;26.33;;;6.80;92.50;;;;;;5073610;28;20028;-37
2021/11/14 07:45:42;;;;;;;46.72;24.88;;;6.80;92.70;;;;;;5073452;28;20053;-38
2021/11/14 07:48:10;;;;;;;59.60;27.52;;;6.80;92.80;;;;;;5073624;28;20404;-38
2021/11/14 07:50:36;;;;;;;54.60;26.25;;;6.80;92.70;;;;;;5073279;28;20024;-38
2021/11/14 07:53:03;;;;;;;57.75;27.92;;;6.90;92.50;;;;;;5073663;28;20037;-38
2021/11/14 07:55:29;;;;;;;65.72;28.55;;;6.80;92.50;;;;;;5073233;28;20388;-38
2021/11/14 07:57:55;;;;;;;58.15;28.35;;;7.00;92.50;;;;;;5073261;28;20033;-38
2021/11/14 08:00:22;;;;;;;52.33;27.38;;;6.90;92.30;;;;;;5072557;28;20037;-40
2021/11/14 08:02:49;;;;;;;61.05;28.38;;;7.00;92.40;;;;;;5073086;28;20027;-36
2021/11/14 08:05:16;;;;;;;59.05;27.77;;;7.10;92.30;;;;;;5072902;28;20027;-36
2021/11/14 08:07:43;;;;;;;68.75;32.42;;;7.10;92.00;;;;;;5072985;28;20211;-37
2021/11/14 08:10:10;;;;;;;70.43;32.80;;;7.10;91.90;;;;;;5072944;28;20116;-37
2021/11/14 08:12:36;;;;;;;72.78;32.13;;;7.10;91.70;;;;;;5072971;28;20108;-37
2021/11/14 08:15:02;;;;;;;74.93;30.70;;;7.20;91.60;;;;;;5072678;28;20527;-37
2021/11/14 08:17:27;;;;;;;75.57;33.50;;;7.30;91.00;;;;;;5072385;28;20031;-37
2021/11/14 08:19:58;;;;;;;77.72;33.70;;;7.40;90.90;;;;;;5072971;28;20020;-36
2021/11/14 08:22:23;;;;;;;70.50;33.05;;;7.30;91.00;;;;;;5073324;28;20078;-37
2021/11/14 08:24:49;;;;;;;78.85;35.40;;;7.50;91.00;;;;;;5072679;28;20016;-37
2021/11/14 08:27:15;;;;;;;80.97;34.63;;;7.50;90.40;;;;;;5072564;28;20024;-37
2021/11/14 08:29:40;;;;;;;67.53;30.15;;;7.50;90.40;;;;;;5072699;28;20033;-37
2021/11/14 08:32:07;;;;;;;72.00;31.65;;;7.30;90.30;;;;;;5073014;28;20025;-37
2021/11/14 08:34:32;;;;;;;68.55;34.28;;;7.30;90.60;;;;;;5071256;28;20476;-37
2021/11/14 08:36:58;;;;;;;75.60;36.78;;;7.30;90.90;;;;;;5072127;28;20067;-36
2021/11/14 08:39:24;;;;;;;73.10;33.13;;;7.40;90.70;;;;;;5072362;28;20035;-37
2021/11/14 08:41:50;;;;;;;72.75;34.25;;;7.50;90.70;;;;;;5072354;28;20380;-37
2021/11/14 08:44:16;;;;;;;64.95;31.73;;;7.50;90.40;;;;;;5072855;28;20111;-36
2021/11/14 08:46:42;;;;;;;64.72;30.88;;;7.40;90.10;;;;;;5072267;28;20032;-37
2021/11/14 08:49:07;;;;;;;65.32;31.83;;;7.40;90.40;;;;;;5072330;28;20036;-37
2021/11/14 08:51:33;;;;;;;55.13;28.48;;;7.40;90.50;;;;;;5072273;28;20029;-37
2021/11/14 08:53:59;;;;;;;54.05;28.90;;;7.40;90.60;;;;;;5072538;28;20101;-37
2021/11/14 08:56:29;;;;;;;54.40;29.13;;;7.40;90.40;;;;;;5073233;28;20459;-37
2021/11/14 08:58:55;;;;;;;;;;;7.50;90.20;;;;;;5072330;28;20384;-38
2021/11/14 09:01:21;;;;;;;50.53;26.88;;;7.50;90.10;;;;;;5072430;28;19911;-37
2021/11/14 09:03:47;;;;;;;51.65;27.00;;;7.70;90.20;;;;;;5072082;28;20032;-38
2021/11/14 09:06:12;;;;;;;41.47;24.17;;;7.70;90.00;;;;;;5071570;28;20131;-37
2021/11/14 09:08:38;;;;;;;40.70;22.27;;;7.70;89.60;;;;;;5071939;28;20157;-37
2021/11/14 09:11:04;;;;;;;42.90;23.55;;;7.80;89.60;;;;;;5071856;28;20078;-38
2021/11/14 09:13:30;;;;;;;36.95;22.10;;;7.80;89.60;;;;;;5075542;28;20020;-37
2021/11/14 09:15:58;;;;;;;38.78;21.92;;;7.80;89.30;;;;;;5076349;28;20031;-38
2021/11/14 09:18:25;;;;;;;38.80;22.88;;;7.80;89.70;;;;;;5075521;28;20104;-37
2021/11/14 09:20:51;;;;;;;34.10;21.45;;;7.80;89.30;;;;;;5075651;28;20023;-38
2021/11/14 09:23:18;;;;;;;32.15;20.85;;;8.00;89.50;;;;;;5075707;28;20419;-37
2021/11/14 09:25:44;;;;;;;31.58;20.33;;;8.20;89.00;;;;;;5076126;28;20074;-37
2021/11/14 09:28:15;;;;;;;35.60;20.25;;;8.10;88.30;;;;;;5075845;28;20344;-37
2021/11/14 09:30:43;;;;;;;40.58;20.67;;;8.20;88.60;;;;;;5075479;28;20020;-37
2021/11/14 09:33:10;;;;;;;37.30;20.27;;;8.00;88.40;;;;;;5075555;28;20026;-38
2021/11/14 09:35:36;;;;;;;35.00;20.10;;;8.10;89.00;;;;;;5073954;28;20085;-36
2021/11/14 09:38:04;;;;;;;33.33;19.48;;;8.10;88.50;;;;;;5074343;28;20029;-36
2021/11/14 09:40:29;;;;;;;41.85;24.10;;;8.10;88.90;;;;;;5075146;28;20153;-37
2021/11/14 09:42:57;;;;;;;42.47;22.25;;;8.10;88.50;;;;;;5075713;28;20052;-37
2021/11/14 09:45:27;;;;;;;46.38;24.30;;;8.20;88.30;;;;;;5075827;28;20044;-37
2021/11/14 09:47:54;;;;;;;40.42;23.15;;;8.20;88.60;;;;;;5075587;28;20062;-37
2021/11/14 09:50:20;;;;;;;37.13;23.75;;;8.10;88.80;;;;;;5075290;28;20456;-38
2021/11/14 09:52:46;;;;;;;38.13;20.35;;;8.30;88.80;;;;;;5074983;28;20024;-37
2021/11/14 09:55:12;;;;;;;35.03;20.02;;;8.30;88.40;;;;;;5074996;28;20384;-37
2021/11/14 09:57:39;;;;;;;36.33;21.10;;;8.40;88.20;;;;;;5075048;28;20112;-38
2021/11/14 10:00:08;;;;;;;36.28;21.17;;;8.30;87.80;;;;;;5073814;28;20029;-38
2021/11/14 10:02:35;;;;;;;37.22;20.88;;;8.40;87.90;;;;;;5075825;28;20048;-38
2021/11/14 10:05:01;;;;;;;35.38;21.90;;;8.50;87.70;;;;;;5075181;28;20028;-37
2021/11/14 10:07:27;;;;;;;35.33;20.75;;;8.40;87.80;;;;;;5074328;28;20123;-38
2021/11/14 10:09:53;;;;;;;36.45;22.15;;;8.60;87.70;;;;;;5073536;28;20365;-38
2021/11/14 10:12:21;;;;;;;35.53;21.10;;;8.70;87.50;;;;;;5074837;28;20071;-38
2021/11/14 10:14:50;;;;;;;32.72;19.00;;;8.80;86.90;;;;;;5073501;28;20067;-37
2021/11/14 10:17:27;;;;;;;35.90;20.30;;;8.70;86.90;;;;;;5074495;28;20100;-37
2021/11/14 10:20:04;;;;;;;38.25;19.90;;;8.60;87.60;;;;;;5075154;28;20440;-37
2021/11/14 10:22:31;;;;;;;38.30;21.80;;;8.80;87.20;;;;;;5074730;28;20541;-38
2021/11/14 10:24:58;;;;;;;38.40;22.42;;;8.80;87.10;;;;;;5074020;28;20480;-38
2021/11/14 10:27:27;;;;;;;41.20;22.83;;;8.80;87.20;;;;;;5073114;28;20017;-38
2021/11/14 10:29:55;;;;;;;34.97;21.88;;;8.70;87.10;;;;;;5074570;28;20107;-38
2021/11/14 10:32:21;;;;;;;38.42;21.95;;;8.70;87.50;;;;;;5073873;28;20071;-38
2021/11/14 10:34:57;;;;;;;36.33;22.08;;;8.80;87.00;;;;;;5072555;28;20476;-38
2021/11/14 10:37:24;;;;;;;34.55;19.58;;;8.80;86.80;;;;;;5074429;28;20043;-38
2021/11/14 10:39:59;;;;;;;34.90;22.50;;;9.10;86.10;;;;;;5074553;28;20074;-38
2021/11/14 10:42:28;;;;;;;32.95;19.00;;;9.30;85.80;;;;;;5073353;28;20070;-39
2021/11/14 10:44:58;;;;;;;31.42;18.88;;;9.20;85.50;;;;;;5073264;28;20074;-37
2021/11/14 10:47:25;;;;;;;28.42;16.55;;;9.20;85.50;;;;;;5074024;28;20140;-37
2021/11/14 10:50:10;;;;;;;30.10;18.02;;;9.10;85.90;;;;;;5074115;28;20054;-37
2021/11/14 10:52:48;;;;;;;28.55;17.35;;;9.00;86.20;;;;;;5074166;28;20082;-37
2021/11/14 10:55:13;;;;;;;30.65;17.98;;;8.90;86.50;;;;;;5073936;28;20385;-37
2021/11/14 10:57:39;;;;;;;32.70;19.15;;;9.00;86.80;;;;;;5073545;28;20100;-38
2021/11/14 11:00:08;;;;;;;33.47;20.15;;;9.10;86.60;;;;;;5073620;28;20043;-38
2021/11/14 11:02:35;;;;;;;32.25;18.00;;;9.10;86.40;;;;;;5073565;28;20477;-38
2021/11/14 11:05:12;;;;;;;29.23;18.77;;;9.20;86.50;;;;;;5073696;28;20051;-39
2021/11/14 11:08:12;;;;;;;29.48;19.33;;;9.10;86.10;;;;;;5055394;28;20099;-37
2021/11/14 11:10:43;;;;;;;28.45;17.67;;;9.20;86.20;;;;;;5051222;28;20039;-39
2021/11/14 11:13:28;;;;;;;28.90;17.60;;;9.30;85.60;;;;;;5073505;28;20029;-38
2021/11/14 11:15:54;;;;;;;29.02;18.05;;;9.30;86.30;;;;;;5073358;28;20096;-37
2021/11/14 11:18:22;;;;;;;30.10;19.10;;;9.40;85.80;;;;;;5073925;28;20024;-37
2021/11/14 11:20:57;;;;;;;28.38;17.98;;;9.40;85.60;;;;;;5073923;28;20036;-37
2021/11/14 11:23:25;;;;;;;32.75;19.85;;;9.40;85.30;;;;;;5074233;28;20444;-38
2021/11/14 11:25:56;;;;;;;36.75;19.98;;;9.30;85.90;;;;;;5073260;28;20020;-38
2021/11/14 11:28:36;;;;;;;34.47;20.17;;;9.40;86.20;;;;;;5054785;28;20059;-39
2021/11/14 11:31:03;;;;;;;31.23;19.30;;;9.30;86.10;;;;;;5073195;28;20525;-38
2021/11/14 11:33:32;;;;;;;29.88;18.48;;;9.30;85.90;;;;;;5054959;28;20039;-38
2021/11/14 11:35:59;;;;;;;29.40;17.42;;;9.30;86.10;;;;;;5072231;28;20027;-37
2021/11/14 11:38:27;;;;;;;29.88;18.30;;;9.50;85.60;;;;;;5072512;28;20044;-38
2021/11/14 11:40:53;;;;;;;33.22;20.48;;;9.50;85.80;;;;;;5072901;28;20074;-38
2021/11/14 11:43:20;;;;;;;30.33;18.83;;;9.60;85.60;;;;;;5072751;28;20040;-38
2021/11/14 11:45:47;;;;;;;32.38;19.50;;;9.60;85.50;;;;;;5072759;28;20111;-38
2021/11/14 11:48:22;;;;;;;29.83;18.27;;;9.50;85.50;;;;;;5072552;28;20029;-38
2021/11/14 11:50:50;;;;;;;25.88;16.52;;;9.50;85.50;;;;;;5072291;28;20058;-39
2021/11/14 11:53:21;;;;;;;28.08;17.77;;;9.60;84.70;;;;;;5072836;28;20025;-38
2021/11/14 11:55:47;;;;;;;29.05;17.70;;;9.60;84.70;;;;;;5072573;28;20480;-38
2021/11/14 11:58:15;;;;;;;28.15;17.00;;;9.80;84.30;;;;;;5072488;28;20103;-38
2021/11/14 12:00:58;;;;;;;26.55;15.32;;;9.80;84.30;;;;;;5070895;28;20036;-37
2021/11/14 12:03:34;;;;;;;26.27;16.88;;;9.90;84.10;;;;;;5072465;28;20358;-38
2021/11/14 12:06:02;;;;;;;26.52;16.58;;;10.10;83.70;;;;;;5072438;28;20492;-38
2021/11/14 12:08:55;;;;;;;24.45;15.90;;;10.30;82.50;;;;;;5072409;28;20423;-37
2021/11/14 12:11:34;;;;;;;22.98;15.68;;;10.10;82.90;;;;;;5071338;28;20449;-37
2021/11/14 12:14:14;;;;;;;24.90;16.05;;;9.90;83.10;;;;;;5072492;28;20070;-37
2021/11/14 12:16:39;;;;;;;27.77;15.80;;;10.00;82.70;;;;;;5072294;28;20025;-37
2021/11/14 12:19:05;;;;;;;24.50;15.98;;;10.10;83.10;;;;;;5072029;28;20074;-37
2021/11/14 12:21:31;;;;;;;22.90;16.60;;;10.40;82.20;;;;;;5072307;28;20025;-37
2021/11/14 12:23:57;;;;;;;24.00;16.25;;;10.50;81.70;;;;;;5072952;28;20031;-38
2021/11/14 12:26:28;;;;;;;27.00;17.85;;;10.80;81.60;;;;;;5072497;28;20453;-38
2021/11/14 12:28:55;;;;;;;27.77;17.42;;;10.60;80.90;;;;;;5071297;28;20476;-38
2021/11/14 12:31:26;;;;;;;23.20;15.88;;;10.60;81.30;;;;;;5073461;28;20028;-37
2021/11/14 12:33:59;;;;;;;26.98;15.85;;;10.60;81.80;;;;;;5072838;28;20032;-37
2021/11/14 12:36:39;;;;;;;23.10;15.10;;;10.40;81.60;;;;;;5072600;28;20081;-37
2021/11/14 12:39:07;;;;;;;23.98;15.80;;;10.40;82.20;;;;;;5072106;28;20021;-37
2021/11/14 12:41:34;;;;;;;27.40;17.15;;;10.30;82.00;;;;;;5072405;28;20433;-37